createdAt,value
2019-02-27T00:00:58.580Z,3.67
2019-02-27T00:03:29.093Z,3.65
2019-02-27T00:05:58.375Z,3.63
2019-02-27T00:08:27.522Z,3.60
2019-02-27T00:10:56.543Z,3.60
2019-02-27T00:13:26.578Z,3.58
2019-02-27T00:15:55.637Z,3.56
2019-02-27T00:18:24.649Z,3.55
2019-02-27T00:20:55.268Z,3.53
2019-02-27T00:23:25.839Z,3.51
2019-02-27T00:25:54.921Z,3.51
2019-02-27T00:28:30.342Z,3.48
2019-02-27T00:30:59.155Z,3.13
2019-02-27T00:33:50.943Z,3.45
2019-02-27T00:36:23.731Z,3.43
2019-02-27T00:38:58.011Z,3.42
2019-02-27T00:41:27.581Z,3.40
2019-02-27T00:44:04.836Z,3.38
2019-02-27T00:46:38.062Z,3.37
2019-02-27T00:49:12.234Z,3.36
2019-02-27T00:51:45.506Z,3.34
2019-02-27T00:54:14.671Z,3.32
2019-02-27T00:56:45.680Z,3.31
2019-02-27T00:59:14.633Z,3.29
2019-02-27T01:01:57.853Z,3.28
2019-02-27T01:04:28.995Z,3.27
2019-02-27T01:06:58.149Z,3.25
2019-02-27T01:09:27.434Z,3.23
2019-02-27T01:11:56.438Z,3.22
2019-02-27T01:14:25.371Z,3.20
2019-02-27T01:16:54.762Z,3.19
2019-02-27T01:19:23.780Z,3.18
2019-02-27T01:21:52.732Z,3.17
2019-02-27T01:24:21.690Z,3.15
2019-02-27T01:26:50.626Z,3.14
2019-02-27T01:29:19.545Z,3.12
2019-02-27T01:31:48.598Z,3.11
2019-02-27T01:34:17.399Z,3.09
2019-02-27T01:36:46.462Z,3.09
2019-02-27T01:39:15.392Z,3.07
2019-02-27T01:41:44.303Z,3.06
2019-02-27T01:44:13.664Z,3.05
2019-02-27T01:46:43.218Z,3.03
2019-02-27T01:49:15.912Z,3.01
2019-02-27T01:51:46.576Z,3.00
2019-02-27T01:54:15.734Z,2.99
2019-02-27T01:56:44.621Z,2.99
2019-02-27T01:59:14.025Z,2.96
2019-02-27T02:01:44.180Z,2.96
2019-02-27T02:04:13.246Z,2.94
2019-02-27T02:06:42.147Z,2.93
2019-02-27T02:09:32.379Z,2.90
2019-02-27T02:12:02.287Z,2.90
2019-02-27T02:15:06.809Z,2.89
2019-02-27T02:18:19.183Z,2.87
2019-02-27T02:21:04.704Z,2.85
2019-02-27T02:24:08.037Z,2.83
2019-02-27T02:26:54.076Z,2.82
2019-02-27T02:30:05.435Z,2.79
2019-02-27T02:33:30.244Z,2.78
2019-02-27T02:36:07.371Z,2.76
2019-02-27T02:38:55.012Z,2.75
2019-02-27T02:41:48.865Z,2.75
2019-02-27T02:45:06.011Z,2.72
2019-02-27T02:48:11.866Z,2.71
2019-02-27T02:51:11.960Z,2.68
2019-02-27T02:54:16.407Z,2.67
2019-02-27T02:57:22.736Z,2.65
2019-02-27T02:59:59.479Z,2.64
2019-02-27T03:03:15.591Z,2.63
2019-02-27T03:06:00.124Z,2.63
2019-02-27T03:08:54.969Z,2.60
2019-02-27T03:11:59.462Z,2.59
2019-02-27T03:14:53.084Z,2.58
2019-02-27T03:17:42.749Z,2.56
2019-02-27T03:20:42.987Z,2.55
2019-02-27T03:24:08.290Z,2.53
2019-02-27T03:27:00.372Z,2.52
2019-02-27T03:30:00.576Z,2.51
2019-02-27T03:32:45.381Z,2.50
2019-02-27T03:35:54.566Z,2.49
2019-02-27T03:39:20.205Z,2.48
2019-02-27T03:42:23.786Z,2.46
2019-02-27T03:45:17.037Z,2.45
2019-02-27T03:47:56.850Z,2.41
2019-02-27T03:51:09.906Z,2.42
2019-02-27T03:53:56.136Z,2.40
2019-02-27T03:57:21.531Z,2.38
2019-02-27T04:00:19.366Z,2.38
2019-02-27T04:03:18.231Z,2.35
2019-02-27T04:06:30.114Z,2.36
2019-02-27T04:08:59.716Z,2.33
2019-02-27T04:11:29.105Z,2.33
2019-02-27T04:14:04.846Z,2.32
2019-02-27T04:16:31.055Z,2.30
2019-02-27T04:19:04.621Z,2.30
2019-02-27T04:21:30.585Z,2.29
2019-02-27T04:23:59.319Z,2.28
2019-02-27T04:26:28.200Z,2.28
2019-02-27T04:28:57.222Z,2.27
2019-02-27T04:31:29.615Z,2.25
2019-02-27T04:33:59.789Z,2.25
2019-02-27T04:36:27.202Z,2.23
2019-02-27T04:38:56.110Z,2.23
2019-02-27T04:41:24.950Z,2.22
2019-02-27T04:43:55.920Z,2.22
2019-02-27T04:46:24.788Z,2.20
2019-02-27T04:48:53.740Z,2.20
2019-02-27T04:51:22.640Z,2.18
2019-02-27T04:53:51.494Z,2.18
2019-02-27T04:56:23.089Z,2.17
2019-02-27T04:58:52.978Z,2.16
2019-02-27T05:01:21.831Z,2.16
2019-02-27T05:03:50.773Z,2.14
2019-02-27T05:06:19.632Z,2.13
2019-02-27T05:08:48.564Z,2.12
2019-02-27T05:11:17.443Z,2.11
2019-02-27T05:13:48.128Z,2.10
2019-02-27T05:16:16.985Z,2.10
2019-02-27T05:18:45.804Z,2.09
2019-02-27T05:21:18.940Z,2.08
2019-02-27T05:23:45.529Z,2.07
2019-02-27T05:26:14.516Z,2.06
2019-02-27T05:28:43.390Z,2.05
2019-02-27T05:31:12.164Z,2.04
2019-02-27T05:33:41.105Z,2.03
2019-02-27T05:36:09.893Z,2.03
2019-02-27T05:38:41.031Z,2.01
2019-02-27T05:41:09.418Z,2.01
2019-02-27T05:43:38.211Z,1.99
2019-02-27T05:46:07.007Z,1.99
2019-02-27T05:48:36.080Z,1.98
2019-02-27T05:51:07.683Z,1.97
2019-02-27T05:53:35.446Z,1.96
2019-02-27T05:56:04.504Z,1.96
2019-02-27T05:58:33.390Z,1.95
2019-02-27T06:01:04.961Z,1.94
2019-02-27T06:03:32.990Z,1.93
2019-02-27T06:06:01.872Z,1.92
2019-02-27T06:08:35.142Z,1.91
2019-02-27T06:11:05.169Z,1.90
2019-02-27T06:13:36.913Z,1.89
2019-02-27T06:16:08.916Z,1.89
2019-02-27T06:18:36.212Z,1.88
2019-02-27T06:21:07.806Z,1.88
2019-02-27T06:23:37.755Z,1.87
2019-02-27T06:26:08.480Z,1.86
2019-02-27T06:28:37.335Z,1.85
2019-02-27T06:31:06.158Z,1.84
2019-02-27T06:33:35.084Z,1.84
2019-02-27T06:36:07.764Z,1.83
2019-02-27T06:38:36.614Z,1.84
2019-02-27T06:41:05.419Z,1.82
2019-02-27T06:43:35.865Z,1.82
2019-02-27T06:46:04.918Z,1.82
2019-02-27T06:48:33.783Z,1.81
2019-02-27T06:51:02.638Z,1.80
2019-02-27T06:53:31.581Z,1.79
2019-02-27T06:56:03.116Z,1.79
2019-02-27T06:58:31.024Z,1.79
2019-02-27T07:00:59.796Z,1.78
2019-02-27T07:03:29.533Z,1.77
2019-02-27T07:05:59.299Z,1.77
2019-02-27T07:08:28.385Z,1.77
2019-02-27T07:11:02.204Z,1.77
2019-02-27T07:13:29.883Z,1.77
2019-02-27T07:15:59.980Z,1.76
2019-02-27T07:18:28.907Z,1.75
2019-02-27T07:21:12.980Z,1.77
2019-02-27T07:23:41.845Z,1.76
2019-02-27T07:26:13.228Z,1.76
2019-02-27T07:28:43.607Z,1.76
2019-02-27T07:31:12.543Z,1.76
2019-02-27T07:33:41.373Z,1.76
2019-02-27T07:36:10.279Z,1.77
2019-02-27T07:38:39.069Z,1.77
2019-02-27T07:41:08.047Z,1.77
2019-02-27T07:43:37.082Z,1.78
2019-02-27T07:46:25.031Z,1.77
2019-02-27T07:49:03.793Z,1.78
2019-02-27T07:51:58.881Z,1.78
2019-02-27T07:54:48.449Z,1.79
2019-02-27T07:57:22.666Z,1.79
2019-02-27T08:00:26.349Z,1.81
2019-02-27T08:03:14.613Z,1.83
2019-02-27T08:05:43.012Z,1.83
2019-02-27T08:08:14.860Z,1.85
2019-02-27T08:13:21.035Z,1.87
2019-02-27T08:16:02.105Z,1.88
2019-02-27T08:18:49.939Z,1.91
2019-02-27T08:21:22.019Z,1.92
2019-02-27T08:23:57.029Z,1.94
2019-02-27T08:26:49.066Z,1.97
2019-02-27T08:29:18.455Z,1.99
2019-02-27T08:32:16.228Z,2.01
2019-02-27T08:35:37.408Z,2.04
2019-02-27T08:38:27.450Z,2.07
2019-02-27T08:41:02.910Z,2.12
2019-02-27T08:43:33.629Z,2.21
2019-02-27T08:46:12.167Z,2.28
2019-02-27T08:48:59.247Z,2.34
2019-02-27T08:55:05.725Z,2.50
2019-02-27T08:57:49.734Z,2.61
2019-02-27T09:00:23.213Z,2.72
2019-02-27T09:03:03.698Z,2.83
2019-02-27T09:05:55.454Z,2.92
2019-02-27T09:08:26.699Z,3.04
2019-02-27T09:11:06.548Z,3.64
2019-02-27T09:13:44.453Z,4.01
2019-02-27T09:16:23.036Z,4.32
2019-02-27T09:18:52.896Z,4.61
2019-02-27T09:21:32.391Z,4.81
2019-02-27T09:24:06.824Z,5.00
2019-02-27T09:27:13.804Z,5.16
2019-02-27T09:29:44.063Z,5.37
2019-02-27T09:32:33.626Z,5.67
2019-02-27T09:35:38.503Z,5.75
2019-02-27T09:38:12.017Z,5.86
2019-02-27T09:40:44.342Z,5.88
2019-02-27T09:43:13.794Z,6.10
2019-02-27T09:45:50.733Z,6.30
2019-02-27T09:48:19.487Z,6.51
2019-02-27T09:50:57.035Z,6.67
2019-02-27T10:33:07.088Z,8.69
2019-02-27T10:35:39.169Z,8.88
2019-02-27T10:38:10.676Z,9.03
2019-02-27T10:40:41.001Z,9.21
2019-02-27T10:43:13.713Z,9.29
2019-02-27T10:45:48.494Z,9.32
2019-02-27T10:48:17.101Z,9.49
2019-02-27T10:50:46.821Z,9.59
2019-02-27T10:53:27.461Z,9.72
2019-02-27T10:56:02.547Z,9.98
2019-02-27T10:58:36.491Z,10.05
2019-02-27T11:04:16.047Z,10.32
2019-02-27T11:06:46.058Z,10.43
2019-02-27T11:09:25.629Z,10.43
2019-02-27T11:12:02.667Z,10.53
2019-02-27T11:14:51.738Z,10.60
2019-02-27T11:17:32.620Z,10.68
2019-02-27T11:20:20.435Z,10.80
2019-02-27T11:22:53.852Z,10.94
2019-02-27T11:25:49.119Z,11.09
2019-02-27T11:28:23.903Z,11.17
2019-02-27T11:31:01.668Z,11.25
2019-02-27T11:33:33.430Z,11.32
2019-02-27T11:36:05.746Z,11.43
2019-02-27T11:38:45.515Z,11.44
2019-02-27T11:41:16.545Z,11.51
2019-02-27T11:43:47.149Z,11.53
2019-02-27T11:46:17.595Z,11.51
2019-02-27T11:48:51.419Z,11.53
2019-02-27T11:51:27.910Z,11.63
2019-02-27T11:54:09.220Z,11.63
2019-02-27T11:56:47.442Z,11.67
2019-02-27T11:59:35.202Z,11.76
2019-02-27T12:02:16.878Z,11.79
2019-02-27T12:04:54.404Z,11.74
2019-02-27T12:07:24.291Z,11.77
2019-02-27T12:09:59.755Z,11.92
2019-02-27T12:12:52.599Z,12.01
2019-02-27T12:15:32.498Z,11.94
2019-02-27T12:18:32.225Z,11.90
2019-02-27T12:21:37.941Z,11.90
2019-02-27T12:24:21.512Z,11.82
2019-02-27T12:27:07.307Z,11.84
2019-02-27T12:29:40.801Z,11.80
2019-02-27T12:32:12.255Z,11.83
2019-02-27T12:34:42.610Z,11.89
2019-02-27T12:37:28.096Z,11.90
2019-02-27T12:39:56.823Z,12.08
2019-02-27T12:42:53.096Z,12.09
2019-02-27T12:45:43.081Z,12.03
2019-02-27T12:48:20.934Z,12.02
2019-02-27T12:50:58.155Z,11.87
2019-02-27T12:53:42.483Z,11.87
2019-02-27T12:56:26.254Z,11.91
2019-02-27T12:59:09.528Z,11.97
2019-02-27T13:02:24.385Z,12.01
2019-02-27T13:04:58.019Z,12.02
2019-02-27T13:07:35.257Z,11.90
2019-02-27T13:10:26.142Z,11.97
2019-02-27T13:13:08.541Z,12.03
2019-02-27T13:16:03.823Z,12.02
2019-02-27T13:19:13.569Z,11.99
2019-02-27T13:22:00.152Z,12.05
2019-02-27T13:24:39.946Z,12.10
2019-02-27T13:27:40.304Z,12.11
2019-02-27T13:30:17.427Z,12.16
2019-02-27T13:32:48.985Z,12.21
2019-02-27T13:35:25.421Z,12.23
2019-02-27T13:37:58.563Z,12.15
2019-02-27T13:40:50.101Z,12.08
2019-02-27T13:43:27.207Z,11.95
2019-02-27T13:46:07.328Z,11.95
2019-02-27T13:48:44.198Z,11.94
2019-02-27T13:51:15.557Z,12.08
2019-02-27T13:53:52.018Z,12.09
2019-02-27T13:56:28.888Z,12.12
2019-02-27T13:59:11.012Z,12.15
2019-02-27T14:01:52.875Z,12.19
2019-02-27T14:04:28.041Z,12.10
2019-02-27T14:07:02.724Z,12.16
2019-02-27T14:09:33.843Z,12.16
2019-02-27T14:12:10.454Z,12.13
2019-02-27T14:14:46.497Z,12.05
2019-02-27T14:17:21.438Z,12.04
2019-02-27T14:20:16.214Z,12.15
2019-02-27T14:23:14.574Z,12.15
2019-02-27T14:25:54.941Z,12.08
2019-02-27T14:28:33.171Z,12.08
2019-02-27T14:31:23.027Z,11.99
2019-02-27T14:34:09.168Z,12.13
2019-02-27T14:37:03.343Z,12.19
2019-02-27T14:39:44.883Z,12.14
2019-02-27T14:42:37.123Z,12.04
2019-02-27T14:45:33.774Z,12.08
2019-02-27T14:51:23.231Z,11.98
2019-02-27T14:54:26.067Z,11.99
2019-02-27T14:57:19.004Z,11.91
2019-02-27T15:00:18.518Z,12.04
2019-02-27T15:03:10.945Z,12.18
2019-02-27T15:06:03.200Z,12.11
2019-02-27T15:08:58.073Z,12.14
2019-02-27T15:11:35.279Z,12.13
2019-02-27T15:14:18.205Z,12.20
2019-02-27T15:17:05.556Z,12.27
2019-02-27T15:19:41.693Z,12.15
2019-02-27T15:22:23.733Z,12.08
2019-02-27T15:24:56.339Z,11.69
2019-02-27T15:27:26.057Z,11.35
2019-02-27T15:30:46.392Z,11.13
2019-02-27T15:33:23.284Z,10.97
2019-02-27T15:36:08.904Z,10.79
2019-02-27T15:38:48.429Z,10.71
2019-02-27T15:41:40.000Z,10.71
2019-02-27T15:48:12.368Z,10.56
2019-02-27T15:50:56.525Z,10.44
2019-02-27T15:53:28.424Z,10.41
2019-02-27T15:56:21.583Z,10.36
2019-02-27T15:59:08.722Z,10.31
2019-02-27T16:02:02.365Z,10.25
2019-02-27T16:04:41.442Z,10.18
2019-02-27T16:07:19.071Z,10.15
2019-02-27T16:10:16.339Z,10.10
2019-02-27T16:13:00.433Z,10.07
2019-02-27T16:16:11.087Z,10.05
2019-02-27T16:26:27.757Z,9.94
2019-02-27T16:28:56.976Z,9.88
2019-02-27T16:31:26.431Z,9.84
2019-02-27T16:33:58.510Z,9.84
2019-02-27T16:36:36.017Z,9.79
2019-02-27T16:38:59.373Z,9.77
2019-02-27T16:41:29.292Z,9.74
2019-02-27T16:43:58.731Z,9.71
2019-02-27T16:46:27.958Z,9.66
2019-02-27T16:49:02.339Z,9.63
2019-02-27T16:51:34.674Z,9.59
2019-02-27T16:54:08.493Z,9.54
2019-02-27T16:56:47.563Z,9.51
2019-02-27T16:59:15.576Z,9.47
2019-02-27T17:01:50.774Z,9.43
2019-02-27T17:04:22.206Z,9.39
2019-02-27T17:06:52.198Z,9.35
2019-02-27T17:09:21.978Z,9.32
2019-02-27T17:11:51.323Z,9.29
2019-02-27T17:14:24.555Z,9.25
2019-02-27T17:16:54.947Z,9.20
2019-02-27T17:19:24.358Z,9.15
2019-02-27T17:21:58.838Z,9.12
2019-02-27T17:24:36.740Z,9.08
2019-02-27T17:27:12.490Z,9.04
2019-02-27T17:29:48.617Z,9.00
2019-02-27T17:32:17.979Z,8.96
2019-02-27T17:34:52.949Z,8.91
2019-02-27T17:37:28.602Z,8.89
2019-02-27T17:39:59.274Z,8.85
2019-02-27T17:42:29.484Z,8.82
2019-02-27T17:45:01.701Z,8.79
2019-02-27T17:47:34.122Z,8.76
2019-02-27T17:50:04.909Z,8.73
2019-02-27T17:52:37.047Z,8.70
2019-02-27T17:55:09.813Z,8.68
2019-02-27T17:57:42.588Z,8.65
2019-02-27T18:00:19.680Z,8.62
2019-02-27T18:02:59.204Z,8.60
2019-02-27T18:05:38.482Z,8.56
2019-02-27T18:08:09.668Z,8.54
2019-02-27T18:10:45.348Z,8.50
2019-02-27T18:13:19.773Z,8.48
2019-02-27T18:15:53.250Z,8.45
2019-02-27T18:18:27.286Z,8.41
2019-02-27T18:20:59.509Z,8.38
2019-02-27T18:23:34.752Z,8.36
2019-02-27T18:26:09.091Z,8.33
2019-02-27T18:29:07.666Z,8.32
2019-02-27T18:31:37.520Z,8.30
2019-02-27T18:34:10.292Z,8.29
2019-02-27T18:36:46.385Z,8.27
2019-02-27T18:39:18.373Z,8.25
2019-02-27T18:44:32.010Z,8.21
2019-02-27T18:47:11.088Z,8.20
2019-02-27T18:49:42.440Z,8.18
2019-02-27T18:52:11.957Z,8.15
2019-02-27T18:54:41.469Z,8.13
2019-02-27T18:57:12.859Z,8.11
2019-02-27T18:59:46.157Z,8.08
2019-02-27T19:02:19.514Z,8.05
2019-02-27T19:04:48.967Z,8.03
2019-02-27T19:07:21.788Z,8.01
2019-02-27T19:09:53.855Z,7.98
2019-02-27T19:12:28.434Z,7.95
2019-02-27T19:15:39.483Z,7.92
2019-02-27T19:19:07.042Z,7.90
2019-02-27T19:21:37.887Z,7.85
2019-02-27T19:24:17.558Z,7.82
2019-02-27T19:26:49.446Z,7.80
2019-02-27T19:29:23.997Z,7.77
2019-02-27T19:31:58.238Z,7.76
2019-02-27T19:34:27.650Z,7.75
2019-02-27T19:37:06.007Z,7.72
2019-02-27T19:39:38.520Z,7.72
2019-02-27T19:42:16.225Z,7.69
2019-02-27T19:44:48.275Z,7.68
2019-02-27T19:47:18.638Z,7.65
2019-02-27T19:49:52.944Z,7.64
2019-02-27T19:52:31.955Z,7.63
2019-02-27T19:55:05.352Z,7.60
2019-02-27T19:57:39.283Z,7.58
2019-02-27T20:00:14.440Z,7.55
2019-02-27T20:02:43.744Z,7.54
2019-02-27T20:05:19.067Z,7.50
2019-02-27T20:07:50.547Z,7.49
2019-02-27T20:10:20.094Z,7.47
2019-02-27T20:12:53.885Z,7.44
2019-02-27T20:15:24.978Z,7.43
2019-02-27T20:18:07.889Z,7.40
2019-02-27T20:20:41.032Z,7.39
2019-02-27T20:23:16.436Z,7.36
2019-02-27T20:25:46.013Z,7.34
2019-02-27T20:28:18.227Z,7.32
2019-02-27T20:30:47.823Z,7.31
2019-02-27T20:33:17.204Z,7.30
2019-02-27T20:35:52.393Z,7.28
2019-02-27T20:38:23.373Z,7.26
2019-02-27T20:40:52.895Z,7.24
2019-02-27T20:43:22.481Z,7.22
2019-02-27T20:46:00.691Z,7.21
2019-02-27T20:48:50.701Z,7.20
2019-02-27T20:51:20.403Z,7.18
2019-02-27T20:53:59.607Z,7.16
2019-02-27T20:56:29.266Z,7.14
2019-02-27T20:59:15.878Z,7.12
2019-02-27T21:01:49.278Z,7.11
2019-02-27T21:04:28.058Z,7.10
2019-02-27T21:07:03.685Z,7.08
2019-02-27T21:09:33.492Z,7.07
2019-02-27T21:12:04.548Z,7.05
2019-02-27T21:14:44.495Z,7.04
2019-02-27T21:17:22.098Z,7.04
2019-02-27T21:20:02.141Z,7.02
2019-02-27T21:22:34.608Z,6.99
2019-02-27T21:25:14.911Z,6.99
2019-02-27T21:27:59.973Z,6.92
2019-02-27T21:30:38.852Z,6.97
2019-02-27T21:33:11.080Z,6.95
2019-02-27T21:35:44.680Z,6.94
2019-02-27T21:38:16.649Z,6.92
2019-02-27T21:40:52.365Z,6.91
2019-02-27T21:43:26.302Z,6.89
2019-02-27T21:45:55.622Z,6.87
2019-02-27T21:48:26.890Z,6.85
2019-02-27T21:51:01.284Z,6.83
2019-02-27T21:53:33.575Z,6.83
2019-02-27T21:56:15.167Z,6.83
2019-02-27T21:58:44.475Z,6.81
2019-02-27T22:01:19.367Z,6.78
2019-02-27T22:03:48.236Z,6.78
2019-02-27T22:06:17.349Z,6.75
2019-02-27T22:08:46.637Z,6.75
2019-02-27T22:11:15.916Z,6.74
2019-02-27T22:13:46.152Z,6.74
2019-02-27T22:17:04.886Z,6.71
2019-02-27T22:19:30.525Z,6.73
2019-02-27T22:22:01.682Z,6.69
2019-02-27T22:24:30.563Z,6.68
2019-02-27T22:26:59.807Z,6.67
2019-02-27T22:29:29.024Z,6.66
2019-02-27T22:31:58.127Z,6.65
2019-02-27T22:34:28.950Z,6.64
2019-02-27T22:36:59.473Z,6.64
2019-02-27T22:39:31.615Z,6.63
2019-02-27T22:41:59.477Z,6.62
2019-02-27T22:44:29.104Z,6.61
2019-02-27T22:46:58.996Z,6.60
2019-02-27T22:49:31.941Z,6.60
2019-02-27T22:52:01.460Z,6.56
2019-02-27T22:54:33.236Z,6.56
2019-02-27T22:57:01.510Z,6.54
2019-02-27T22:59:30.505Z,6.53
2019-02-27T23:01:59.650Z,6.51
2019-02-27T23:04:29.964Z,6.49
2019-02-27T23:06:59.702Z,6.47
2019-02-27T23:09:28.800Z,6.46
2019-02-27T23:11:57.994Z,6.46
2019-02-27T23:14:27.029Z,6.44
2019-02-27T23:16:55.972Z,6.42
2019-02-27T23:19:25.234Z,6.40
2019-02-27T23:22:00.725Z,6.39
2019-02-27T23:24:29.765Z,6.38
2019-02-27T23:26:58.887Z,6.36
2019-02-27T23:29:28.256Z,6.34
2019-02-27T23:31:57.531Z,6.34
2019-02-27T23:34:31.247Z,6.33
2019-02-27T23:37:00.483Z,6.31
2019-02-27T23:39:29.618Z,6.29
2019-02-27T23:42:00.288Z,6.28
2019-02-27T23:44:29.454Z,6.27
2019-02-27T23:46:58.328Z,6.26
2019-02-27T23:49:29.360Z,6.24
2019-02-27T23:51:58.481Z,6.23
2019-02-27T23:54:27.500Z,6.21
2019-02-27T23:56:59.655Z,6.20
2019-02-27T23:59:28.819Z,6.19
